sensor_id;sensor_type;location;lat;lon;timestamp;temperature;humidity
33994;DHT22;20673;48.980;8.138;2022-12-05T00:01:46;3.20;99.90
33994;DHT22;20673;48.980;8.138;2022-12-05T00:04:12;3.20;99.90
33994;DHT22;20673;48.980;8.138;2022-12-05T00:06:39;3.20;99.90
33994;DHT22;20673;48.980;8.138;2022-12-05T00:09:07;3.10;99.90
33994;DHT22;20673;48.980;8.138;2022-12-05T00:11:35;3.10;99.90
33994;DHT22;20673;48.980;8.138;2022-12-05T00:14:03;3.10;99.90
33994;DHT22;20673;48.980;8.138;2022-12-05T00:16:30;3.20;99.90
33994;DHT22;20673;48.980;8.138;2022-12-05T00:18:58;3.20;99.90
33994;DHT22;20673;48.980;8.138;2022-12-05T00:21:25;3.20;99.90
33994;DHT22;20673;48.980;8.138;2022-12-05T00:23:54;3.30;99.90
33994;DHT22;20673;48.980;8.138;2022-12-05T00:26:20;3.30;99.90
33994;DHT22;20673;48.980;8.138;2022-12-05T00:28:47;3.20;99.90
33994;DHT22;20673;48.980;8.138;2022-12-05T00:31:16;3.20;99.90
33994;DHT22;20673;48.980;8.138;2022-12-05T00:33:43;3.20;99.90
33994;DHT22;20673;48.980;8.138;2022-12-05T00:36:14;3.20;99.90
33994;DHT22;20673;48.980;8.138;2022-12-05T00:38:43;3.30;99.90
33994;DHT22;20673;48.980;8.138;2022-12-05T00:41:11;3.30;99.90
33994;DHT22;20673;48.980;8.138;2022-12-05T00:43:39;3.30;99.90
33994;DHT22;20673;48.980;8.138;2022-12-05T00:46:09;3.30;99.90
33994;DHT22;20673;48.980;8.138;2022-12-05T00:48:35;3.20;99.90
33994;DHT22;20673;48.980;8.138;2022-12-05T00:51:02;3.20;99.90
33994;DHT22;20673;48.980;8.138;2022-12-05T00:53:31;3.20;99.90
33994;DHT22;20673;48.980;8.138;2022-12-05T00:56:01;3.20;99.90
33994;DHT22;20673;48.980;8.138;2022-12-05T00:58:28;3.20;99.90
33994;DHT22;20673;48.980;8.138;2022-12-05T01:00:55;3.20;99.90
33994;DHT22;20673;48.980;8.138;2022-12-05T01:03:21;3.20;99.90
33994;DHT22;20673;48.980;8.138;2022-12-05T01:05:47;3.20;99.90
33994;DHT22;20673;48.980;8.138;2022-12-05T01:08:13;3.20;99.90
33994;DHT22;20673;48.980;8.138;2022-12-05T01:10:39;3.20;99.90
33994;DHT22;20673;48.980;8.138;2022-12-05T01:13:05;3.20;99.90
33994;DHT22;20673;48.980;8.138;2022-12-05T01:15:35;3.20;99.90
33994;DHT22;20673;48.980;8.138;2022-12-05T01:18:01;3.20;99.90
33994;DHT22;20673;48.980;8.138;2022-12-05T01:20:27;3.30;99.90
33994;DHT22;20673;48.980;8.138;2022-12-05T01:22:53;3.20;99.90
33994;DHT22;20673;48.980;8.138;2022-12-05T01:25:19;3.30;99.90
33994;DHT22;20673;48.980;8.138;2022-12-05T01:27:45;3.30;99.90
33994;DHT22;20673;48.980;8.138;2022-12-05T01:30:11;3.20;99.90
33994;DHT22;20673;48.980;8.138;2022-12-05T01:32:37;3.30;99.90
33994;DHT22;20673;48.980;8.138;2022-12-05T01:35:03;3.20;99.90
33994;DHT22;20673;48.980;8.138;2022-12-05T01:37:30;3.20;99.90
33994;DHT22;20673;48.980;8.138;2022-12-05T01:39:56;3.20;99.90
33994;DHT22;20673;48.980;8.138;2022-12-05T01:42:22;3.20;99.90
33994;DHT22;20673;48.980;8.138;2022-12-05T01:47:18;3.20;99.90
33994;DHT22;20673;48.980;8.138;2022-12-05T01:49:46;3.20;99.90
33994;DHT22;20673;48.980;8.138;2022-12-05T01:52:13;3.20;99.90
33994;DHT22;20673;48.980;8.138;2022-12-05T01:54:44;3.20;99.90
33994;DHT22;20673;48.980;8.138;2022-12-05T01:57:12;3.20;99.90
33994;DHT22;20673;48.980;8.138;2022-12-05T01:59:40;3.20;99.90
33994;DHT22;20673;48.980;8.138;2022-12-05T02:02:08;3.20;99.90
33994;DHT22;20673;48.980;8.138;2022-12-05T02:04:37;3.30;99.90
33994;DHT22;20673;48.980;8.138;2022-12-05T02:07:14;3.20;99.90
33994;DHT22;20673;48.980;8.138;2022-12-05T02:09:41;3.20;99.90
33994;DHT22;20673;48.980;8.138;2022-12-05T02:12:07;3.20;99.90
33994;DHT22;20673;48.980;8.138;2022-12-05T02:32:17;3.30;99.90
33994;DHT22;20673;48.980;8.138;2022-12-05T02:34:47;3.40;99.90
33994;DHT22;20673;48.980;8.138;2022-12-05T02:37:33;3.40;99.90
33994;DHT22;20673;48.980;8.138;2022-12-05T02:40:04;3.30;99.90
33994;DHT22;20673;48.980;8.138;2022-12-05T02:42:37;3.40;99.90
33994;DHT22;20673;48.980;8.138;2022-12-05T02:45:07;3.40;99.90
33994;DHT22;20673;48.980;8.138;2022-12-05T02:47:37;3.50;99.90
33994;DHT22;20673;48.980;8.138;2022-12-05T02:50:08;3.60;99.90
33994;DHT22;20673;48.980;8.138;2022-12-05T02:52:37;3.50;99.90
33994;DHT22;20673;48.980;8.138;2022-12-05T02:55:06;3.60;99.90
33994;DHT22;20673;48.980;8.138;2022-12-05T02:57:33;3.60;99.90
33994;DHT22;20673;48.980;8.138;2022-12-05T03:00:00;3.70;99.90
33994;DHT22;20673;48.980;8.138;2022-12-05T03:02:30;3.60;99.90
33994;DHT22;20673;48.980;8.138;2022-12-05T03:05:07;3.70;99.90
33994;DHT22;20673;48.980;8.138;2022-12-05T03:07:46;3.70;99.90
33994;DHT22;20673;48.980;8.138;2022-12-05T03:10:16;3.70;99.90
33994;DHT22;20673;48.980;8.138;2022-12-05T03:12:44;3.70;99.90
33994;DHT22;20673;48.980;8.138;2022-12-05T03:15:14;3.70;99.90
33994;DHT22;20673;48.980;8.138;2022-12-05T03:17:49;3.70;99.90
33994;DHT22;20673;48.980;8.138;2022-12-05T03:20:32;3.70;99.90
33994;DHT22;20673;48.980;8.138;2022-12-05T03:26:10;3.70;99.90
33994;DHT22;20673;48.980;8.138;2022-12-05T03:29:08;3.70;99.90
33994;DHT22;20673;48.980;8.138;2022-12-05T03:31:39;3.70;99.90
33994;DHT22;20673;48.980;8.138;2022-12-05T03:34:12;3.70;99.90
33994;DHT22;20673;48.980;8.138;2022-12-05T03:36:41;3.70;99.90
33994;DHT22;20673;48.980;8.138;2022-12-05T03:39:11;3.70;99.90
33994;DHT22;20673;48.980;8.138;2022-12-05T03:41:46;3.80;99.90
33994;DHT22;20673;48.980;8.138;2022-12-05T03:44:22;3.80;99.90
33994;DHT22;20673;48.980;8.138;2022-12-05T03:46:55;3.80;99.90
33994;DHT22;20673;48.980;8.138;2022-12-05T03:52:44;3.80;99.90
33994;DHT22;20673;48.980;8.138;2022-12-05T03:54:36;3.70;99.90
33994;DHT22;20673;48.980;8.138;2022-12-05T03:57:18;3.80;99.90
33994;DHT22;20673;48.980;8.138;2022-12-05T03:59:43;3.70;99.90
33994;DHT22;20673;48.980;8.138;2022-12-05T04:02:25;3.70;99.90
33994;DHT22;20673;48.980;8.138;2022-12-05T04:05:06;3.70;99.90
33994;DHT22;20673;48.980;8.138;2022-12-05T04:07:30;3.70;99.90
33994;DHT22;20673;48.980;8.138;2022-12-05T04:10:01;3.70;99.90
33994;DHT22;20673;48.980;8.138;2022-12-05T04:12:29;3.70;99.90
33994;DHT22;20673;48.980;8.138;2022-12-05T04:14:59;3.70;99.90
33994;DHT22;20673;48.980;8.138;2022-12-05T04:17:47;3.60;99.90
33994;DHT22;20673;48.980;8.138;2022-12-05T04:20:29;3.60;99.90
33994;DHT22;20673;48.980;8.138;2022-12-05T04:23:12;3.60;99.90
33994;DHT22;20673;48.980;8.138;2022-12-05T04:25:45;3.60;99.90
33994;DHT22;20673;48.980;8.138;2022-12-05T04:33:46;3.60;99.90
33994;DHT22;20673;48.980;8.138;2022-12-05T04:36:33;3.60;99.90
33994;DHT22;20673;48.980;8.138;2022-12-05T04:39:24;3.50;99.90
33994;DHT22;20673;48.980;8.138;2022-12-05T04:41:59;3.60;99.90
33994;DHT22;20673;48.980;8.138;2022-12-05T04:44:33;3.60;99.90
33994;DHT22;20673;48.980;8.138;2022-12-05T04:47:02;3.60;99.90
33994;DHT22;20673;48.980;8.138;2022-12-05T04:49:32;3.60;99.90
33994;DHT22;20673;48.980;8.138;2022-12-05T04:52:00;3.60;99.90
33994;DHT22;20673;48.980;8.138;2022-12-05T04:55:29;3.60;99.90
33994;DHT22;20673;48.980;8.138;2022-12-05T04:57:30;3.60;99.90
33994;DHT22;20673;48.980;8.138;2022-12-05T04:59:58;3.60;99.90
33994;DHT22;20673;48.980;8.138;2022-12-05T05:02:29;3.60;99.90
33994;DHT22;20673;48.980;8.138;2022-12-05T05:05:00;3.60;99.90
33994;DHT22;20673;48.980;8.138;2022-12-05T05:07:28;3.70;99.90
33994;DHT22;20673;48.980;8.138;2022-12-05T05:09:54;3.70;99.90
33994;DHT22;20673;48.980;8.138;2022-12-05T05:12:21;3.70;99.90
33994;DHT22;20673;48.980;8.138;2022-12-05T05:14:47;3.70;99.90
33994;DHT22;20673;48.980;8.138;2022-12-05T05:17:13;3.70;99.90
33994;DHT22;20673;48.980;8.138;2022-12-05T05:19:38;3.70;99.90
33994;DHT22;20673;48.980;8.138;2022-12-05T05:22:04;3.70;99.90
33994;DHT22;20673;48.980;8.138;2022-12-05T05:24:30;3.70;99.90
33994;DHT22;20673;48.980;8.138;2022-12-05T05:26:56;3.60;99.90
33994;DHT22;20673;48.980;8.138;2022-12-05T05:29:22;3.70;99.90
33994;DHT22;20673;48.980;8.138;2022-12-05T05:31:49;3.70;99.90
33994;DHT22;20673;48.980;8.138;2022-12-05T05:34:15;3.70;99.90
33994;DHT22;20673;48.980;8.138;2022-12-05T05:36:41;3.70;99.90
33994;DHT22;20673;48.980;8.138;2022-12-05T05:39:10;3.70;99.90
33994;DHT22;20673;48.980;8.138;2022-12-05T05:41:39;3.70;99.90
33994;DHT22;20673;48.980;8.138;2022-12-05T05:44:07;3.70;99.90
33994;DHT22;20673;48.980;8.138;2022-12-05T05:46:33;3.70;99.90
33994;DHT22;20673;48.980;8.138;2022-12-05T05:49:00;3.70;99.90
33994;DHT22;20673;48.980;8.138;2022-12-05T05:51:26;3.70;99.90
33994;DHT22;20673;48.980;8.138;2022-12-05T05:53:54;3.70;99.90
33994;DHT22;20673;48.980;8.138;2022-12-05T05:56:20;3.70;99.90
33994;DHT22;20673;48.980;8.138;2022-12-05T05:58:46;3.70;99.90
33994;DHT22;20673;48.980;8.138;2022-12-05T06:01:18;3.70;99.90
33994;DHT22;20673;48.980;8.138;2022-12-05T06:03:43;3.70;99.90
33994;DHT22;20673;48.980;8.138;2022-12-05T06:06:10;3.60;99.90
33994;DHT22;20673;48.980;8.138;2022-12-05T06:08:39;3.60;99.90
33994;DHT22;20673;48.980;8.138;2022-12-05T06:11:07;3.70;99.90
33994;DHT22;20673;48.980;8.138;2022-12-05T06:13:36;3.70;99.90
33994;DHT22;20673;48.980;8.138;2022-12-05T06:16:06;3.70;99.90
33994;DHT22;20673;48.980;8.138;2022-12-05T06:18:33;3.60;99.90
33994;DHT22;20673;48.980;8.138;2022-12-05T06:21:00;3.70;99.90
33994;DHT22;20673;48.980;8.138;2022-12-05T06:23:26;3.60;99.90
33994;DHT22;20673;48.980;8.138;2022-12-05T06:25:53;3.60;99.90
33994;DHT22;20673;48.980;8.138;2022-12-05T06:28:21;3.70;99.90
33994;DHT22;20673;48.980;8.138;2022-12-05T06:30:48;3.70;99.90
33994;DHT22;20673;48.980;8.138;2022-12-05T06:33:14;3.70;99.90
33994;DHT22;20673;48.980;8.138;2022-12-05T06:35:41;3.70;99.90
33994;DHT22;20673;48.980;8.138;2022-12-05T06:38:07;3.70;99.90
33994;DHT22;20673;48.980;8.138;2022-12-05T06:40:34;3.70;99.90
33994;DHT22;20673;48.980;8.138;2022-12-05T06:43:02;3.70;99.90
33994;DHT22;20673;48.980;8.138;2022-12-05T06:45:28;3.70;99.90
33994;DHT22;20673;48.980;8.138;2022-12-05T06:47:54;3.70;99.90
33994;DHT22;20673;48.980;8.138;2022-12-05T06:50:20;3.70;99.90
33994;DHT22;20673;48.980;8.138;2022-12-05T06:52:46;3.70;99.90
33994;DHT22;20673;48.980;8.138;2022-12-05T06:55:12;3.70;99.90
33994;DHT22;20673;48.980;8.138;2022-12-05T06:57:38;3.70;99.90
33994;DHT22;20673;48.980;8.138;2022-12-05T07:00:04;3.70;99.90
33994;DHT22;20673;48.980;8.138;2022-12-05T07:02:50;3.70;99.90
33994;DHT22;20673;48.980;8.138;2022-12-05T07:05:16;3.70;99.90
33994;DHT22;20673;48.980;8.138;2022-12-05T07:07:42;3.80;99.90
33994;DHT22;20673;48.980;8.138;2022-12-05T07:10:08;3.80;99.90
33994;DHT22;20673;48.980;8.138;2022-12-05T07:12:34;3.80;99.90
33994;DHT22;20673;48.980;8.138;2022-12-05T07:15:01;3.90;99.90
33994;DHT22;20673;48.980;8.138;2022-12-05T07:17:27;3.90;99.90
33994;DHT22;20673;48.980;8.138;2022-12-05T07:19:53;3.90;99.90
33994;DHT22;20673;48.980;8.138;2022-12-05T07:22:20;3.90;99.90
33994;DHT22;20673;48.980;8.138;2022-12-05T07:24:47;3.90;99.90
33994;DHT22;20673;48.980;8.138;2022-12-05T07:27:15;3.90;99.90
33994;DHT22;20673;48.980;8.138;2022-12-05T07:29:41;3.90;99.90
33994;DHT22;20673;48.980;8.138;2022-12-05T07:32:07;3.90;99.90
33994;DHT22;20673;48.980;8.138;2022-12-05T07:34:33;3.80;99.90
33994;DHT22;20673;48.980;8.138;2022-12-05T07:36:59;3.80;99.90
33994;DHT22;20673;48.980;8.138;2022-12-05T07:39:25;3.80;99.90
33994;DHT22;20673;48.980;8.138;2022-12-05T07:41:52;3.80;99.90
33994;DHT22;20673;48.980;8.138;2022-12-05T07:44:18;3.80;99.90
33994;DHT22;20673;48.980;8.138;2022-12-05T07:46:44;3.80;99.90
33994;DHT22;20673;48.980;8.138;2022-12-05T07:49:10;3.80;99.90
33994;DHT22;20673;48.980;8.138;2022-12-05T07:51:36;3.80;99.90
33994;DHT22;20673;48.980;8.138;2022-12-05T07:54:03;3.80;99.90
33994;DHT22;20673;48.980;8.138;2022-12-05T07:56:29;3.80;99.90
33994;DHT22;20673;48.980;8.138;2022-12-05T07:58:55;3.80;99.90
33994;DHT22;20673;48.980;8.138;2022-12-05T08:01:22;3.90;99.90
33994;DHT22;20673;48.980;8.138;2022-12-05T08:03:50;3.90;99.90
33994;DHT22;20673;48.980;8.138;2022-12-05T08:06:18;3.90;99.90
33994;DHT22;20673;48.980;8.138;2022-12-05T08:08:46;3.90;99.90
33994;DHT22;20673;48.980;8.138;2022-12-05T08:11:16;3.90;99.90
33994;DHT22;20673;48.980;8.138;2022-12-05T08:13:45;3.90;99.90
33994;DHT22;20673;48.980;8.138;2022-12-05T08:16:12;3.90;99.90
33994;DHT22;20673;48.980;8.138;2022-12-05T08:18:41;4.00;99.90
33994;DHT22;20673;48.980;8.138;2022-12-05T08:21:12;4.00;99.90
33994;DHT22;20673;48.980;8.138;2022-12-05T08:23:40;4.10;99.90
33994;DHT22;20673;48.980;8.138;2022-12-05T08:26:08;4.10;99.90
33994;DHT22;20673;48.980;8.138;2022-12-05T08:28:36;4.20;99.90
33994;DHT22;20673;48.980;8.138;2022-12-05T08:31:04;4.10;99.90
33994;DHT22;20673;48.980;8.138;2022-12-05T08:33:32;4.10;99.90
33994;DHT22;20673;48.980;8.138;2022-12-05T08:35:59;4.20;99.90
33994;DHT22;20673;48.980;8.138;2022-12-05T08:38:26;4.20;99.90
33994;DHT22;20673;48.980;8.138;2022-12-05T08:40:52;4.20;99.90
33994;DHT22;20673;48.980;8.138;2022-12-05T08:43:18;4.30;99.90
33994;DHT22;20673;48.980;8.138;2022-12-05T08:45:51;4.30;99.90
33994;DHT22;20673;48.980;8.138;2022-12-05T08:48:18;4.40;99.90
33994;DHT22;20673;48.980;8.138;2022-12-05T08:50:44;4.40;99.90
33994;DHT22;20673;48.980;8.138;2022-12-05T08:53:10;4.50;99.90
33994;DHT22;20673;48.980;8.138;2022-12-05T08:55:37;4.50;99.90
33994;DHT22;20673;48.980;8.138;2022-12-05T08:58:03;4.60;99.90
33994;DHT22;20673;48.980;8.138;2022-12-05T09:00:29;4.70;99.90
33994;DHT22;20673;48.980;8.138;2022-12-05T09:02:56;4.70;99.90
33994;DHT22;20673;48.980;8.138;2022-12-05T09:05:23;4.80;99.90
33994;DHT22;20673;48.980;8.138;2022-12-05T09:07:49;4.80;99.90
33994;DHT22;20673;48.980;8.138;2022-12-05T09:10:15;4.90;99.90
33994;DHT22;20673;48.980;8.138;2022-12-05T09:12:41;5.00;99.90
33994;DHT22;20673;48.980;8.138;2022-12-05T09:15:07;5.00;99.90
33994;DHT22;20673;48.980;8.138;2022-12-05T09:17:36;5.00;99.90
33994;DHT22;20673;48.980;8.138;2022-12-05T09:20:03;5.00;99.90
33994;DHT22;20673;48.980;8.138;2022-12-05T09:22:30;5.00;99.90
33994;DHT22;20673;48.980;8.138;2022-12-05T09:24:56;5.10;99.90
33994;DHT22;20673;48.980;8.138;2022-12-05T09:27:23;5.20;99.90
33994;DHT22;20673;48.980;8.138;2022-12-05T09:29:49;5.10;99.90
33994;DHT22;20673;48.980;8.138;2022-12-05T09:32:15;5.10;99.90
33994;DHT22;20673;48.980;8.138;2022-12-05T09:34:41;5.10;99.90
33994;DHT22;20673;48.980;8.138;2022-12-05T09:37:07;5.10;99.90
33994;DHT22;20673;48.980;8.138;2022-12-05T09:39:33;5.20;99.90
33994;DHT22;20673;48.980;8.138;2022-12-05T09:56:03;5.30;99.90
33994;DHT22;20673;48.980;8.138;2022-12-05T09:58:45;5.40;99.90
33994;DHT22;20673;48.980;8.138;2022-12-05T10:09:51;5.60;99.90
33994;DHT22;20673;48.980;8.138;2022-12-05T10:17:33;5.60;99.90
33994;DHT22;20673;48.980;8.138;2022-12-05T10:20:02;5.70;99.90
33994;DHT22;20673;48.980;8.138;2022-12-05T10:25:19;5.80;99.90
33994;DHT22;20673;48.980;8.138;2022-12-05T10:27:48;5.80;99.90
33994;DHT22;20673;48.980;8.138;2022-12-05T10:30:17;5.90;99.90
33994;DHT22;20673;48.980;8.138;2022-12-05T10:35:23;6.10;99.90
33994;DHT22;20673;48.980;8.138;2022-12-05T10:37:51;6.20;99.90
33994;DHT22;20673;48.980;8.138;2022-12-05T10:40:19;6.30;99.90
33994;DHT22;20673;48.980;8.138;2022-12-05T10:42:46;6.20;99.90
33994;DHT22;20673;48.980;8.138;2022-12-05T10:45:15;6.30;99.90
33994;DHT22;20673;48.980;8.138;2022-12-05T10:47:43;6.30;99.90
33994;DHT22;20673;48.980;8.138;2022-12-05T10:50:30;6.30;99.90
33994;DHT22;20673;48.980;8.138;2022-12-05T10:52:58;6.30;99.90
33994;DHT22;20673;48.980;8.138;2022-12-05T10:55:33;6.30;99.90
33994;DHT22;20673;48.980;8.138;2022-12-05T10:58:42;6.20;99.90
33994;DHT22;20673;48.980;8.138;2022-12-05T11:00:52;6.30;99.90
33994;DHT22;20673;48.980;8.138;2022-12-05T11:03:34;6.30;99.90
33994;DHT22;20673;48.980;8.138;2022-12-05T11:06:24;6.30;99.90
33994;DHT22;20673;48.980;8.138;2022-12-05T11:08:52;6.30;99.90
33994;DHT22;20673;48.980;8.138;2022-12-05T11:11:26;6.30;99.90
33994;DHT22;20673;48.980;8.138;2022-12-05T11:16:25;6.40;99.90
33994;DHT22;20673;48.980;8.138;2022-12-05T11:19:17;6.40;99.90
33994;DHT22;20673;48.980;8.138;2022-12-05T11:21:49;6.40;99.90
33994;DHT22;20673;48.980;8.138;2022-12-05T11:29:58;6.60;99.90
33994;DHT22;20673;48.980;8.138;2022-12-05T11:32:30;6.50;99.90
33994;DHT22;20673;48.980;8.138;2022-12-05T11:35:02;6.60;99.90
33994;DHT22;20673;48.980;8.138;2022-12-05T11:37:34;6.70;99.90
33994;DHT22;20673;48.980;8.138;2022-12-05T11:40:01;6.70;99.90
33994;DHT22;20673;48.980;8.138;2022-12-05T11:42:38;6.70;99.90
33994;DHT22;20673;48.980;8.138;2022-12-05T11:48:25;6.80;99.90
33994;DHT22;20673;48.980;8.138;2022-12-05T11:50:59;6.90;99.90
33994;DHT22;20673;48.980;8.138;2022-12-05T11:56:11;6.80;99.90
33994;DHT22;20673;48.980;8.138;2022-12-05T11:58:44;6.80;99.90
33994;DHT22;20673;48.980;8.138;2022-12-05T12:12:16;7.00;99.90
33994;DHT22;20673;48.980;8.138;2022-12-05T12:15:02;6.90;99.90
33994;DHT22;20673;48.980;8.138;2022-12-05T12:20:15;6.70;99.90
33994;DHT22;20673;48.980;8.138;2022-12-05T12:34:04;6.70;99.90
33994;DHT22;20673;48.980;8.138;2022-12-05T12:39:25;6.80;99.90
33994;DHT22;20673;48.980;8.138;2022-12-05T12:45:01;6.90;99.90
33994;DHT22;20673;48.980;8.138;2022-12-05T12:47:46;7.00;99.90
33994;DHT22;20673;48.980;8.138;2022-12-05T12:58:53;7.20;99.90
33994;DHT22;20673;48.980;8.138;2022-12-05T13:01:42;7.10;99.90
33994;DHT22;20673;48.980;8.138;2022-12-05T13:04:19;7.00;99.90
33994;DHT22;20673;48.980;8.138;2022-12-05T13:06:53;6.90;99.90
33994;DHT22;20673;48.980;8.138;2022-12-05T13:12:04;6.80;99.90
33994;DHT22;20673;48.980;8.138;2022-12-05T13:14:31;6.80;99.90
33994;DHT22;20673;48.980;8.138;2022-12-05T13:17:00;6.70;99.90
33994;DHT22;20673;48.980;8.138;2022-12-05T13:19:36;6.70;99.90
33994;DHT22;20673;48.980;8.138;2022-12-05T13:22:01;6.70;99.90
33994;DHT22;20673;48.980;8.138;2022-12-05T13:24:27;6.70;99.90
33994;DHT22;20673;48.980;8.138;2022-12-05T13:26:56;6.70;99.90
33994;DHT22;20673;48.980;8.138;2022-12-05T13:29:28;6.60;99.90
33994;DHT22;20673;48.980;8.138;2022-12-05T13:31:56;6.60;99.90
33994;DHT22;20673;48.980;8.138;2022-12-05T13:37:09;6.50;99.90
33994;DHT22;20673;48.980;8.138;2022-12-05T13:39:55;6.50;99.90
33994;DHT22;20673;48.980;8.138;2022-12-05T13:42:41;6.50;99.90
33994;DHT22;20673;48.980;8.138;2022-12-05T13:45:14;6.40;99.90
33994;DHT22;20673;48.980;8.138;2022-12-05T13:50:33;6.30;99.90
33994;DHT22;20673;48.980;8.138;2022-12-05T13:53:15;6.30;99.90
33994;DHT22;20673;48.980;8.138;2022-12-05T14:01:46;6.30;99.90
33994;DHT22;20673;48.980;8.138;2022-12-05T14:17:27;6.40;99.90
33994;DHT22;20673;48.980;8.138;2022-12-05T14:33:03;6.40;99.90
33994;DHT22;20673;48.980;8.138;2022-12-05T14:35:53;6.40;99.90
33994;DHT22;20673;48.980;8.138;2022-12-05T14:38:18;6.40;99.90
33994;DHT22;20673;48.980;8.138;2022-12-05T14:40:54;6.40;99.90
33994;DHT22;20673;48.980;8.138;2022-12-05T14:46:03;6.40;99.90
33994;DHT22;20673;48.980;8.138;2022-12-05T14:48:34;6.40;99.90
33994;DHT22;20673;48.980;8.138;2022-12-05T14:51:41;6.30;99.90
33994;DHT22;20673;48.980;8.138;2022-12-05T14:53:38;6.20;99.90
33994;DHT22;20673;48.980;8.138;2022-12-05T14:56:17;6.10;99.90
33994;DHT22;20673;48.980;8.138;2022-12-05T14:58:48;6.00;99.90
33994;DHT22;20673;48.980;8.138;2022-12-05T15:01:30;5.90;99.90
33994;DHT22;20673;48.980;8.138;2022-12-05T15:04:02;5.80;99.90
33994;DHT22;20673;48.980;8.138;2022-12-05T15:06:51;5.80;99.90
33994;DHT22;20673;48.980;8.138;2022-12-05T15:11:54;5.70;99.90
33994;DHT22;20673;48.980;8.138;2022-12-05T15:14:22;5.80;99.90
33994;DHT22;20673;48.980;8.138;2022-12-05T15:16:51;5.70;99.90
33994;DHT22;20673;48.980;8.138;2022-12-05T15:19:22;5.70;99.90
33994;DHT22;20673;48.980;8.138;2022-12-05T15:21:53;5.60;99.90
33994;DHT22;20673;48.980;8.138;2022-12-05T15:24:22;5.50;99.90
33994;DHT22;20673;48.980;8.138;2022-12-05T15:26:57;5.50;99.90
33994;DHT22;20673;48.980;8.138;2022-12-05T15:29:26;5.40;99.90
33994;DHT22;20673;48.980;8.138;2022-12-05T15:31:56;5.30;99.90
33994;DHT22;20673;48.980;8.138;2022-12-05T15:39:54;5.20;99.90
33994;DHT22;20673;48.980;8.138;2022-12-05T15:42:24;5.10;99.90
33994;DHT22;20673;48.980;8.138;2022-12-05T15:44:54;5.10;99.90
33994;DHT22;20673;48.980;8.138;2022-12-05T15:47:23;5.10;99.90
33994;DHT22;20673;48.980;8.138;2022-12-05T15:49:50;5.10;99.90
33994;DHT22;20673;48.980;8.138;2022-12-05T15:55:09;5.30;99.90
33994;DHT22;20673;48.980;8.138;2022-12-05T15:57:39;5.20;99.90
33994;DHT22;20673;48.980;8.138;2022-12-05T16:00:17;5.20;99.90
33994;DHT22;20673;48.980;8.138;2022-12-05T16:05:21;5.30;99.90
33994;DHT22;20673;48.980;8.138;2022-12-05T16:07:53;5.30;99.90
33994;DHT22;20673;48.980;8.138;2022-12-05T16:10:19;5.30;99.90
33994;DHT22;20673;48.980;8.138;2022-12-05T16:12:47;5.30;99.90
33994;DHT22;20673;48.980;8.138;2022-12-05T16:15:22;5.30;99.90
33994;DHT22;20673;48.980;8.138;2022-12-05T16:17:54;5.30;99.90
33994;DHT22;20673;48.980;8.138;2022-12-05T16:20:23;5.30;99.90
33994;DHT22;20673;48.980;8.138;2022-12-05T16:23:00;5.30;99.90
33994;DHT22;20673;48.980;8.138;2022-12-05T16:25:32;5.30;99.90
33994;DHT22;20673;48.980;8.138;2022-12-05T16:30:35;5.30;99.90
33994;DHT22;20673;48.980;8.138;2022-12-05T16:33:09;5.20;99.90
33994;DHT22;20673;48.980;8.138;2022-12-05T16:35:41;5.20;99.90
33994;DHT22;20673;48.980;8.138;2022-12-05T16:45:58;5.20;99.90
33994;DHT22;20673;48.980;8.138;2022-12-05T16:48:30;5.20;99.90
33994;DHT22;20673;48.980;8.138;2022-12-05T16:51:16;5.10;99.90
33994;DHT22;20673;48.980;8.138;2022-12-05T16:53:50;5.10;99.90
33994;DHT22;20673;48.980;8.138;2022-12-05T16:56:18;5.10;99.90
33994;DHT22;20673;48.980;8.138;2022-12-05T16:58:47;5.10;99.90
33994;DHT22;20673;48.980;8.138;2022-12-05T17:01:19;5.10;99.90
33994;DHT22;20673;48.980;8.138;2022-12-05T17:03:46;5.00;99.90
33994;DHT22;20673;48.980;8.138;2022-12-05T17:06:13;5.10;99.90
33994;DHT22;20673;48.980;8.138;2022-12-05T17:08:40;5.10;99.90
33994;DHT22;20673;48.980;8.138;2022-12-05T17:11:13;5.10;99.90
33994;DHT22;20673;48.980;8.138;2022-12-05T17:13:42;5.00;99.90
33994;DHT22;20673;48.980;8.138;2022-12-05T17:16:09;5.00;99.90
33994;DHT22;20673;48.980;8.138;2022-12-05T17:18:35;5.00;99.90
33994;DHT22;20673;48.980;8.138;2022-12-05T17:21:01;5.00;99.90
33994;DHT22;20673;48.980;8.138;2022-12-05T17:23:27;5.00;99.90
33994;DHT22;20673;48.980;8.138;2022-12-05T17:25:54;4.90;99.90
33994;DHT22;20673;48.980;8.138;2022-12-05T17:28:21;4.90;99.90
33994;DHT22;20673;48.980;8.138;2022-12-05T17:30:48;4.90;99.90
33994;DHT22;20673;48.980;8.138;2022-12-05T17:33:16;4.90;99.90
33994;DHT22;20673;48.980;8.138;2022-12-05T17:35:43;4.80;99.90
33994;DHT22;20673;48.980;8.138;2022-12-05T17:38:09;4.80;99.90
33994;DHT22;20673;48.980;8.138;2022-12-05T17:40:36;4.80;99.90
33994;DHT22;20673;48.980;8.138;2022-12-05T17:43:03;4.80;99.90
33994;DHT22;20673;48.980;8.138;2022-12-05T17:45:29;4.80;99.90
33994;DHT22;20673;48.980;8.138;2022-12-05T17:47:56;4.70;99.90
33994;DHT22;20673;48.980;8.138;2022-12-05T17:50:22;4.70;99.90
33994;DHT22;20673;48.980;8.138;2022-12-05T17:52:50;4.70;99.90
33994;DHT22;20673;48.980;8.138;2022-12-05T17:55:27;4.70;99.90
33994;DHT22;20673;48.980;8.138;2022-12-05T17:57:54;4.70;99.90
33994;DHT22;20673;48.980;8.138;2022-12-05T18:00:20;4.70;99.90
33994;DHT22;20673;48.980;8.138;2022-12-05T18:02:48;4.60;99.90
33994;DHT22;20673;48.980;8.138;2022-12-05T18:05:15;4.60;99.90
33994;DHT22;20673;48.980;8.138;2022-12-05T18:07:42;4.60;99.90
33994;DHT22;20673;48.980;8.138;2022-12-05T18:10:10;4.50;99.90
33994;DHT22;20673;48.980;8.138;2022-12-05T18:12:38;4.50;99.90
33994;DHT22;20673;48.980;8.138;2022-12-05T18:15:05;4.40;99.90
33994;DHT22;20673;48.980;8.138;2022-12-05T18:17:32;4.40;99.90
33994;DHT22;20673;48.980;8.138;2022-12-05T18:19:58;4.30;99.90
33994;DHT22;20673;48.980;8.138;2022-12-05T18:22:24;4.30;99.90
33994;DHT22;20673;48.980;8.138;2022-12-05T18:24:51;4.20;99.90
33994;DHT22;20673;48.980;8.138;2022-12-05T18:27:18;4.20;99.90
33994;DHT22;20673;48.980;8.138;2022-12-05T18:29:48;4.10;99.90
33994;DHT22;20673;48.980;8.138;2022-12-05T18:32:15;4.10;99.90
33994;DHT22;20673;48.980;8.138;2022-12-05T18:34:42;4.00;99.90
33994;DHT22;20673;48.980;8.138;2022-12-05T18:37:08;4.00;99.90
33994;DHT22;20673;48.980;8.138;2022-12-05T18:39:35;3.90;99.90
33994;DHT22;20673;48.980;8.138;2022-12-05T18:42:02;3.80;99.90
33994;DHT22;20673;48.980;8.138;2022-12-05T18:44:29;3.90;99.90
33994;DHT22;20673;48.980;8.138;2022-12-05T18:46:55;4.00;99.90
33994;DHT22;20673;48.980;8.138;2022-12-05T18:49:21;3.90;99.90
33994;DHT22;20673;48.980;8.138;2022-12-05T18:51:48;3.90;99.90
33994;DHT22;20673;48.980;8.138;2022-12-05T18:54:15;3.90;99.90
33994;DHT22;20673;48.980;8.138;2022-12-05T18:56:41;3.80;99.90
33994;DHT22;20673;48.980;8.138;2022-12-05T18:59:11;3.90;99.90
33994;DHT22;20673;48.980;8.138;2022-12-05T19:01:40;3.90;99.90
33994;DHT22;20673;48.980;8.138;2022-12-05T19:04:07;3.90;99.90
33994;DHT22;20673;48.980;8.138;2022-12-05T19:06:37;3.90;99.90